createdAt,value
2022-10-01T00:19:15.372Z,66.70
2022-10-01T00:21:44.974Z,66.90
2022-10-01T00:26:54.868Z,67.40
2022-10-01T00:29:25.429Z,67.90
2022-10-01T00:31:52.718Z,68.30
2022-10-01T00:34:21.671Z,68.40
2022-10-01T00:36:49.692Z,68.30
2022-10-01T02:14:07.700Z,68.30
2022-10-01T02:50:51.039Z,66.60
2022-10-01T02:53:24.332Z,66.20
2022-10-01T03:09:29.166Z,66.60
2022-10-01T03:22:52.878Z,62.00
2022-10-01T03:30:51.289Z,60.80
2022-10-01T04:50:11.617Z,62.70
2022-10-01T04:52:42.944Z,63.20
2022-10-01T04:55:11.018Z,63.30
2022-10-01T04:57:39.407Z,63.90
2022-10-01T05:00:08.469Z,64.00
2022-10-01T05:02:42.887Z,64.60
2022-10-01T05:05:10.109Z,65.40
2022-10-01T05:07:37.428Z,65.00
2022-10-01T05:10:04.564Z,65.40
2022-10-01T05:12:31.518Z,65.90
2022-10-01T05:14:58.633Z,66.30
2022-10-01T05:17:25.710Z,66.60
2022-10-01T05:19:53.457Z,66.90
2022-10-01T05:22:21.456Z,66.70
2022-10-01T05:24:48.383Z,66.60
2022-10-01T05:27:15.630Z,66.50
2022-10-01T05:29:42.975Z,66.50
2022-10-01T05:32:10.368Z,66.20
2022-10-01T05:34:37.266Z,66.00
2022-10-01T05:37:05.373Z,65.50
2022-10-01T05:39:35.595Z,65.80
2022-10-01T05:42:06.540Z,65.80
2022-10-01T05:44:41.226Z,66.00
2022-10-01T05:47:09.056Z,65.50
2022-10-01T05:49:36.900Z,66.00
2022-10-01T05:52:05.503Z,66.30
2022-10-01T05:54:33.230Z,66.20
2022-10-01T05:57:00.497Z,65.30
2022-10-01T05:59:32.019Z,65.60
2022-10-01T06:01:59.693Z,65.40
2022-10-01T06:04:28.612Z,65.20
2022-10-01T06:06:56.948Z,66.00
2022-10-01T06:09:24.101Z,65.40
2022-10-01T06:11:51.886Z,65.40
2022-10-01T06:14:23.145Z,65.10
2022-10-01T06:16:53.813Z,64.80
2022-10-01T06:19:22.548Z,64.70
2022-10-01T06:21:53.894Z,65.00
2022-10-01T06:24:24.387Z,64.80
2022-10-01T06:26:51.935Z,64.90
2022-10-01T06:29:20.121Z,65.30
2022-10-01T06:31:48.125Z,65.50
2022-10-01T06:34:15.199Z,65.50
2022-10-01T06:36:46.116Z,65.50
2022-10-01T06:39:13.393Z,65.30
2022-10-01T06:41:43.685Z,64.80
2022-10-01T06:44:11.234Z,64.80
2022-10-01T06:46:38.455Z,64.80
2022-10-01T06:49:05.472Z,64.70
2022-10-01T06:51:54.065Z,64.50
2022-10-01T06:54:21.172Z,64.30
2022-10-01T06:56:48.718Z,64.10
2022-10-01T06:59:19.802Z,64.10
2022-10-01T07:01:52.928Z,64.40
2022-10-01T07:04:22.918Z,64.60
2022-10-01T07:17:25.779Z,63.20
2022-10-01T07:19:54.976Z,61.60
2022-10-01T07:22:25.643Z,59.70
2022-10-01T07:24:52.657Z,59.00
2022-10-01T07:27:20.217Z,59.20
2022-10-01T08:23:51.319Z,29.70
2022-10-01T08:43:55.513Z,32.10
2022-10-01T08:51:48.311Z,34.60
2022-10-01T11:07:47.078Z,25.70
2022-10-01T16:19:21.759Z,63.80
2022-10-01T16:24:53.590Z,64.50
2022-10-01T16:27:42.606Z,65.20
2022-10-01T16:30:20.214Z,65.20
2022-10-01T16:32:47.723Z,65.90
2022-10-01T18:29:17.241Z,69.60
2022-10-01T18:31:47.910Z,69.70
2022-10-01T18:43:00.321Z,70.90
2022-10-01T19:24:04.205Z,71.70
2022-10-01T19:26:40.878Z,72.00
2022-10-01T19:29:14.279Z,72.20
2022-10-01T19:48:25.130Z,72.70
2022-10-01T19:53:59.938Z,72.70
2022-10-01T20:02:21.810Z,72.20
2022-10-01T20:05:04.356Z,72.30
2022-10-01T20:07:59.011Z,72.30
2022-10-01T20:10:52.062Z,72.60
2022-10-01T20:13:48.663Z,72.80
2022-10-01T20:18:55.145Z,73.20
2022-10-01T20:21:41.305Z,73.40
2022-10-01T20:24:19.198Z,73.90
2022-10-01T20:26:52.540Z,74.20
2022-10-01T20:49:00.565Z,73.50
2022-10-01T20:51:53.959Z,73.30
2022-10-01T20:57:45.495Z,73.20
2022-10-01T21:00:47.257Z,72.90
2022-10-01T21:03:29.920Z,72.70
2022-10-01T21:25:48.083Z,73.00
2022-10-01T21:28:18.932Z,72.90
2022-10-01T21:31:03.795Z,73.20
2022-10-01T21:33:36.271Z,73.70
2022-10-01T21:36:11.828Z,73.60
2022-10-01T21:38:42.048Z,73.50
2022-10-01T21:41:43.728Z,73.40
2022-10-01T21:44:16.132Z,73.50
2022-10-01T21:47:09.829Z,73.30
2022-10-01T21:55:31.169Z,72.70
2022-10-01T21:58:31.377Z,72.80
2022-10-01T22:01:12.101Z,72.80
2022-10-01T22:03:51.010Z,72.80
2022-10-01T22:06:30.049Z,72.60
2022-10-01T22:09:09.457Z,72.50
2022-10-01T22:33:55.514Z,73.90
2022-10-01T22:36:32.793Z,74.00
2022-10-01T22:39:00.925Z,74.10
2022-10-01T22:44:30.466Z,74.20
2022-10-01T22:47:19.840Z,74.00
2022-10-01T22:50:13.419Z,73.80
2022-10-01T22:52:43.305Z,74.10
2022-10-01T22:55:22.638Z,74.30
2022-10-01T22:58:18.525Z,74.10
2022-10-01T23:00:51.940Z,73.90
2022-10-01T23:03:21.674Z,73.70
2022-10-01T23:06:15.208Z,73.80
2022-10-01T23:09:06.081Z,74.00
2022-10-01T23:11:54.499Z,73.90
2022-10-01T23:14:35.774Z,74.50
2022-10-01T23:17:07.895Z,74.60
2022-10-01T23:19:38.271Z,74.70
2022-10-01T23:22:24.192Z,75.00
2022-10-01T23:24:56.042Z,75.20
2022-10-01T23:27:34.902Z,75.10
2022-10-01T23:30:10.110Z,74.90
2022-10-01T23:32:46.485Z,74.40
2022-10-01T23:35:14.739Z,74.10
2022-10-01T23:37:42.216Z,74.10
2022-10-01T23:40:16.512Z,74.30
2022-10-01T23:42:55.768Z,74.70
2022-10-01T23:45:32.026Z,75.30
2022-10-01T23:48:00.072Z,75.70
2022-10-01T23:50:31.963Z,75.90
2022-10-01T23:53:29.525Z,76.00
2022-10-01T23:56:36.630Z,75.50
2022-10-01T23:59:26.218Z,75.60
